ADDS METAR Data

Data at: 1832 UTC 20 Jul 2018

METAR for:KGHG (Marshfield Muni, MA, US)
Text:KGHG 201815Z AUTO 09009KT 040V110 10SM CLR 24/18 A3018 RMK AO2
Temperature: 24.0°C ( 75°F)
Dewpoint: 18.0°C ( 64°F) [RH = 69%]
Pressure (altimeter):30.18 inches Hg (1022.1 mb)
Winds:from the E (90 degrees) at 10 MPH (9 knots; 4.6 m/s)
Visibility:10 or more sm (16+ km)
Ceiling:at least 12,000 feet AGL
Clouds:sky clear below 12,000 feet AGL
QC Flag:automated observation with no human augmentation